Petrolia, Texas
Current Conditions -  °F | °C
As of 9:52 PM on Wednesday 26 Nov 2014 (Local Time) from KSPS Reporting Station
Clear Clear  
Wind Chill: 35°   Ceiling: Unl
Heat Index: 41°   Visibility: 10mi
Dew Point: 31°   Wind: 9mph
Humidity: 67%   Direction: 30°NNE
Pressure: 30.39"   Gusts: NA
Location:  34.01°N, 98.23°W
Report Text: KSPS 270352Z 03008KT 10SM CLR 05/M01 A3039 RMK AO2 SLP293 T00501006
Loading
Personal Weather Stations






























Interactive Weather Map New forecast layout! Learn more

10-Day Weather Forecast

Advertisements
Track Severe Weather on mobile